sensor_id;sensor_type;location;lat;lon;timestamp;pressure;altitude;pressure_sealevel;temperature;humidity
3796;BME280;1913;50.660;7.834;2022-12-24T00:00:24;96380.06;;;8.84;100.00
3796;BME280;1913;50.660;7.834;2022-12-24T00:02:49;96379.28;;;8.84;100.00
3796;BME280;1913;50.660;7.834;2022-12-24T00:05:15;96387.13;;;8.84;100.00
3796;BME280;1913;50.660;7.834;2022-12-24T00:07:41;96384.94;;;8.81;100.00
3796;BME280;1913;50.660;7.834;2022-12-24T00:10:07;96378.66;;;8.82;100.00
3796;BME280;1913;50.660;7.834;2022-12-24T00:12:33;96385.72;;;8.81;100.00
3796;BME280;1913;50.660;7.834;2022-12-24T00:14:58;96386.31;;;8.83;100.00
3796;BME280;1913;50.660;7.834;2022-12-24T00:17:24;96388.94;;;8.83;100.00
3796;BME280;1913;50.660;7.834;2022-12-24T00:19:49;96399.47;;;8.77;100.00
3796;BME280;1913;50.660;7.834;2022-12-24T00:22:15;96395.81;;;8.78;100.00
3796;BME280;1913;50.660;7.834;2022-12-24T00:24:40;96395.25;;;8.76;100.00
3796;BME280;1913;50.660;7.834;2022-12-24T00:27:05;96397.22;;;8.80;100.00
3796;BME280;1913;50.660;7.834;2022-12-24T00:29:31;96408.72;;;8.79;100.00
3796;BME280;1913;50.660;7.834;2022-12-24T00:31:57;96406.28;;;8.78;100.00
3796;BME280;1913;50.660;7.834;2022-12-24T00:34:23;96424.84;;;8.76;100.00
3796;BME280;1913;50.660;7.834;2022-12-24T00:36:49;96416.19;;;8.76;100.00
3796;BME280;1913;50.660;7.834;2022-12-24T00:39:14;96419.22;;;8.73;100.00
3796;BME280;1913;50.660;7.834;2022-12-24T00:41:40;96421.06;;;8.72;100.00
3796;BME280;1913;50.660;7.834;2022-12-24T00:44:06;96426.88;;;8.74;100.00
3796;BME280;1913;50.660;7.834;2022-12-24T00:46:37;96431.53;;;8.72;100.00
3796;BME280;1913;50.660;7.834;2022-12-24T00:49:04;96428.91;;;8.72;100.00
3796;BME280;1913;50.660;7.834;2022-12-24T00:51:29;96425.72;;;8.63;100.00
3796;BME280;1913;50.660;7.834;2022-12-24T00:53:55;96421.66;;;8.68;100.00
3796;BME280;1913;50.660;7.834;2022-12-24T00:56:20;96430.75;;;8.65;100.00
3796;BME280;1913;50.660;7.834;2022-12-24T00:58:46;96424.50;;;8.66;100.00
3796;BME280;1913;50.660;7.834;2022-12-24T01:01:12;96430.94;;;8.63;100.00
3796;BME280;1913;50.660;7.834;2022-12-24T01:03:38;96439.81;;;8.62;100.00
3796;BME280;1913;50.660;7.834;2022-12-24T01:06:06;96442.06;;;8.59;100.00
3796;BME280;1913;50.660;7.834;2022-12-24T01:08:32;96441.06;;;8.53;100.00
3796;BME280;1913;50.660;7.834;2022-12-24T01:10:58;96430.00;;;8.51;100.00
3796;BME280;1913;50.660;7.834;2022-12-24T01:13:23;96438.88;;;8.50;100.00
3796;BME280;1913;50.660;7.834;2022-12-24T01:15:49;96441.31;;;8.45;100.00
3796;BME280;1913;50.660;7.834;2022-12-24T01:18:15;96438.88;;;8.50;100.00
3796;BME280;1913;50.660;7.834;2022-12-24T01:20:40;96445.91;;;8.50;100.00
3796;BME280;1913;50.660;7.834;2022-12-24T01:23:06;96438.28;;;8.42;100.00
3796;BME280;1913;50.660;7.834;2022-12-24T01:25:32;96445.53;;;8.46;100.00
3796;BME280;1913;50.660;7.834;2022-12-24T01:27:57;96443.13;;;8.45;100.00
3796;BME280;1913;50.660;7.834;2022-12-24T01:30:22;96444.31;;;8.42;100.00
3796;BME280;1913;50.660;7.834;2022-12-24T01:32:48;96448.56;;;8.43;100.00
3796;BME280;1913;50.660;7.834;2022-12-24T01:35:13;96456.63;;;8.42;100.00
3796;BME280;1913;50.660;7.834;2022-12-24T01:37:41;96460.03;;;8.42;100.00
3796;BME280;1913;50.660;7.834;2022-12-24T01:40:09;96461.06;;;8.41;100.00
3796;BME280;1913;50.660;7.834;2022-12-24T01:42:53;96460.03;;;8.42;100.00
3796;BME280;1913;50.660;7.834;2022-12-24T01:53:51;96454.00;;;8.42;100.00
3796;BME280;1913;50.660;7.834;2022-12-24T01:56:19;96460.66;;;8.44;100.00
3796;BME280;1913;50.660;7.834;2022-12-24T01:58:47;96452.16;;;8.49;100.00
3796;BME280;1913;50.660;7.834;2022-12-24T02:01:15;96456.59;;;8.48;100.00
3796;BME280;1913;50.660;7.834;2022-12-24T02:03:41;96470.31;;;8.50;100.00
3796;BME280;1913;50.660;7.834;2022-12-24T02:06:07;96469.06;;;8.53;100.00
3796;BME280;1913;50.660;7.834;2022-12-24T02:08:34;96462.63;;;8.49;100.00
3796;BME280;1913;50.660;7.834;2022-12-24T02:11:11;96484.00;;;8.46;100.00
3796;BME280;1913;50.660;7.834;2022-12-24T02:13:37;96488.41;;;8.32;100.00
3796;BME280;1913;50.660;7.834;2022-12-24T02:22:13;96485.63;;;8.13;100.00
3796;BME280;1913;50.660;7.834;2022-12-24T02:28:00;96488.66;;;8.10;100.00
3796;BME280;1913;50.660;7.834;2022-12-24T02:30:42;96501.97;;;8.09;100.00
3796;BME280;1913;50.660;7.834;2022-12-24T02:33:31;96507.59;;;8.06;100.00
3796;BME280;1913;50.660;7.834;2022-12-24T02:36:19;96512.63;;;8.07;100.00
3796;BME280;1913;50.660;7.834;2022-12-24T02:38:49;96511.22;;;8.05;100.00
3796;BME280;1913;50.660;7.834;2022-12-24T02:41:22;96517.66;;;8.09;100.00
3796;BME280;1913;50.660;7.834;2022-12-24T02:43:50;96520.88;;;8.11;100.00
3796;BME280;1913;50.660;7.834;2022-12-24T02:46:21;96522.50;;;8.12;100.00
3796;BME280;1913;50.660;7.834;2022-12-24T02:48:49;96524.91;;;8.13;100.00
3796;BME280;1913;50.660;7.834;2022-12-24T02:51:15;96522.28;;;8.13;100.00
3796;BME280;1913;50.660;7.834;2022-12-24T02:53:41;96535.75;;;8.24;100.00
3796;BME280;1913;50.660;7.834;2022-12-24T03:04:22;96549.69;;;8.37;100.00
3796;BME280;1913;50.660;7.834;2022-12-24T03:07:16;96562.53;;;8.46;100.00
3796;BME280;1913;50.660;7.834;2022-12-24T03:12:38;96556.09;;;8.48;100.00
3796;BME280;1913;50.660;7.834;2022-12-24T03:15:09;96553.69;;;8.47;100.00
3796;BME280;1913;50.660;7.834;2022-12-24T03:17:37;96568.19;;;8.49;100.00
3796;BME280;1913;50.660;7.834;2022-12-24T03:20:07;96565.16;;;8.46;100.00
3796;BME280;1913;50.660;7.834;2022-12-24T03:22:34;96564.56;;;8.50;100.00
3796;BME280;1913;50.660;7.834;2022-12-24T03:25:01;96559.53;;;8.49;100.00
3796;BME280;1913;50.660;7.834;2022-12-24T03:27:28;96560.31;;;8.56;100.00
3796;BME280;1913;50.660;7.834;2022-12-24T03:29:54;96557.09;;;8.54;100.00
3796;BME280;1913;50.660;7.834;2022-12-24T03:32:27;96556.91;;;8.49;100.00
3796;BME280;1913;50.660;7.834;2022-12-24T03:34:53;96574.63;;;8.53;100.00
3796;BME280;1913;50.660;7.834;2022-12-24T03:37:19;96582.06;;;8.50;100.00
3796;BME280;1913;50.660;7.834;2022-12-24T03:39:45;96578.47;;;8.51;100.00
3796;BME280;1913;50.660;7.834;2022-12-24T03:42:10;96575.03;;;8.50;100.00
3796;BME280;1913;50.660;7.834;2022-12-24T03:44:35;96576.03;;;8.56;100.00
3796;BME280;1913;50.660;7.834;2022-12-24T03:47:01;96574.03;;;8.51;100.00
3796;BME280;1913;50.660;7.834;2022-12-24T03:49:26;96571.41;;;8.45;100.00
3796;BME280;1913;50.660;7.834;2022-12-24T03:51:51;96580.25;;;8.37;100.00
3796;BME280;1913;50.660;7.834;2022-12-24T03:54:17;96585.91;;;8.34;100.00
3796;BME280;1913;50.660;7.834;2022-12-24T03:56:42;96585.28;;;8.32;100.00
3796;BME280;1913;50.660;7.834;2022-12-24T03:59:08;96587.72;;;8.13;100.00
3796;BME280;1913;50.660;7.834;2022-12-24T04:01:33;96587.28;;;8.03;100.00
3796;BME280;1913;50.660;7.834;2022-12-24T04:03:58;96598.16;;;8.00;100.00
3796;BME280;1913;50.660;7.834;2022-12-24T04:06:24;96600.97;;;7.92;100.00
3796;BME280;1913;50.660;7.834;2022-12-24T04:08:49;96598.97;;;7.81;100.00
3796;BME280;1913;50.660;7.834;2022-12-24T04:11:16;96592.50;;;7.77;100.00
3796;BME280;1913;50.660;7.834;2022-12-24T04:13:42;96595.91;;;7.64;100.00
3796;BME280;1913;50.660;7.834;2022-12-24T04:16:10;96600.31;;;7.63;100.00
3796;BME280;1913;50.660;7.834;2022-12-24T04:18:36;96597.91;;;7.62;100.00
3796;BME280;1913;50.660;7.834;2022-12-24T04:21:02;96599.09;;;7.53;100.00
3796;BME280;1913;50.660;7.834;2022-12-24T04:23:32;96599.53;;;7.70;100.00
3796;BME280;1913;50.660;7.834;2022-12-24T04:25:59;96604.34;;;7.59;100.00
3796;BME280;1913;50.660;7.834;2022-12-24T04:28:25;96601.31;;;7.56;100.00
3796;BME280;1913;50.660;7.834;2022-12-24T04:30:50;96602.94;;;7.63;100.00
3796;BME280;1913;50.660;7.834;2022-12-24T04:33:15;96599.13;;;7.59;100.00
3796;BME280;1913;50.660;7.834;2022-12-24T04:35:41;96600.31;;;7.57;100.00
3796;BME280;1913;50.660;7.834;2022-12-24T04:38:08;96595.47;;;7.47;100.00
3796;BME280;1913;50.660;7.834;2022-12-24T04:40:33;96603.91;;;7.49;100.00
3796;BME280;1913;50.660;7.834;2022-12-24T04:42:59;96611.75;;;7.49;100.00
3796;BME280;1913;50.660;7.834;2022-12-24T04:45:25;96599.91;;;7.53;100.00
3796;BME280;1913;50.660;7.834;2022-12-24T04:47:50;96602.91;;;7.43;100.00
3796;BME280;1913;50.660;7.834;2022-12-24T04:50:16;96599.91;;;7.53;100.00
3796;BME280;1913;50.660;7.834;2022-12-24T04:52:41;96597.66;;;7.50;100.00
3796;BME280;1913;50.660;7.834;2022-12-24T04:55:07;96592.63;;;7.42;100.00
3796;BME280;1913;50.660;7.834;2022-12-24T04:57:33;96592.63;;;7.42;100.00
3796;BME280;1913;50.660;7.834;2022-12-24T05:00:00;96600.09;;;7.52;100.00
3796;BME280;1913;50.660;7.834;2022-12-24T05:02:26;96602.34;;;7.55;100.00
3796;BME280;1913;50.660;7.834;2022-12-24T05:04:51;96618.03;;;7.68;100.00
3796;BME280;1913;50.660;7.834;2022-12-24T05:07:16;96628.69;;;7.60;100.00
3796;BME280;1913;50.660;7.834;2022-12-24T05:09:42;96632.50;;;7.51;100.00
3796;BME280;1913;50.660;7.834;2022-12-24T05:12:07;96652.16;;;7.40;100.00
3796;BME280;1913;50.660;7.834;2022-12-24T05:14:33;96655.75;;;7.39;100.00
3796;BME280;1913;50.660;7.834;2022-12-24T05:16:58;96645.22;;;7.19;100.00
3796;BME280;1913;50.660;7.834;2022-12-24T05:19:24;96639.16;;;7.18;100.00
3796;BME280;1913;50.660;7.834;2022-12-24T05:21:49;96654.56;;;7.00;100.00
3796;BME280;1913;50.660;7.834;2022-12-24T05:24:34;96646.50;;;6.95;100.00
3796;BME280;1913;50.660;7.834;2022-12-24T05:27:18;96655.53;;;6.92;100.00
3796;BME280;1913;50.660;7.834;2022-12-24T05:29:44;96663.78;;;6.96;100.00
3796;BME280;1913;50.660;7.834;2022-12-24T05:32:09;96664.19;;;7.00;100.00
3796;BME280;1913;50.660;7.834;2022-12-24T05:34:35;96659.19;;;6.98;100.00
3796;BME280;1913;50.660;7.834;2022-12-24T05:37:00;96657.13;;;6.93;100.00
3796;BME280;1913;50.660;7.834;2022-12-24T05:39:25;96654.13;;;6.96;100.00
3796;BME280;1913;50.660;7.834;2022-12-24T05:41:51;96664.19;;;7.00;100.00
3796;BME280;1913;50.660;7.834;2022-12-24T05:44:16;96656.41;;;7.06;100.00
3796;BME280;1913;50.660;7.834;2022-12-24T05:46:42;96661.16;;;6.96;100.00
3796;BME280;1913;50.660;7.834;2022-12-24T05:49:08;96669.44;;;7.00;100.00
3796;BME280;1913;50.660;7.834;2022-12-24T05:51:33;96669.81;;;6.96;100.00
3796;BME280;1913;50.660;7.834;2022-12-24T05:53:59;96666.81;;;7.00;100.00
3796;BME280;1913;50.660;7.834;2022-12-24T05:56:24;96666.81;;;7.00;100.00
3796;BME280;1913;50.660;7.834;2022-12-24T05:58:51;96665.94;;;6.86;100.00
3796;BME280;1913;50.660;7.834;2022-12-24T06:01:18;96669.38;;;6.93;100.00
3796;BME280;1913;50.660;7.834;2022-12-24T06:03:44;96681.31;;;7.02;100.00
3796;BME280;1913;50.660;7.834;2022-12-24T06:06:12;96691.38;;;7.05;100.00
3796;BME280;1913;50.660;7.834;2022-12-24T06:08:39;96680.72;;;7.07;100.00
3796;BME280;1913;50.660;7.834;2022-12-24T06:11:08;96679.47;;;6.96;100.00
3796;BME280;1913;50.660;7.834;2022-12-24T06:13:35;96677.50;;;7.05;100.00
3796;BME280;1913;50.660;7.834;2022-12-24T06:16:02;96680.50;;;7.02;100.00
3796;BME280;1913;50.660;7.834;2022-12-24T06:18:29;96673.00;;;6.92;100.00
3796;BME280;1913;50.660;7.834;2022-12-24T06:20:56;96679.28;;;6.98;100.00
3796;BME280;1913;50.660;7.834;2022-12-24T06:23:22;96684.34;;;7.06;100.00
3796;BME280;1913;50.660;7.834;2022-12-24T06:25:48;96686.75;;;7.07;100.00
3796;BME280;1913;50.660;7.834;2022-12-24T06:28:14;96688.59;;;7.13;100.00
3796;BME280;1913;50.660;7.834;2022-12-24T06:30:40;96694.47;;;7.15;100.00
3796;BME280;1913;50.660;7.834;2022-12-24T06:33:06;96696.25;;;7.15;100.00
3796;BME280;1913;50.660;7.834;2022-12-24T06:35:32;96698.88;;;7.22;100.00
3796;BME280;1913;50.660;7.834;2022-12-24T06:37:58;96688.69;;;7.27;100.00
3796;BME280;1913;50.660;7.834;2022-12-24T06:40:25;96703.13;;;7.23;100.00
3796;BME280;1913;50.660;7.834;2022-12-24T06:42:50;96704.13;;;7.22;100.00
3796;BME280;1913;50.660;7.834;2022-12-24T06:45:16;96703.91;;;7.16;100.00
3796;BME280;1913;50.660;7.834;2022-12-24T06:47:41;96704.75;;;7.24;100.00
3796;BME280;1913;50.660;7.834;2022-12-24T06:50:07;96706.50;;;7.16;100.00
3796;BME280;1913;50.660;7.834;2022-12-24T06:52:33;96718.94;;;7.14;100.00
3796;BME280;1913;50.660;7.834;2022-12-24T06:54:58;96714.94;;;7.18;100.00
3796;BME280;1913;50.660;7.834;2022-12-24T06:57:24;96716.34;;;7.14;100.00
3796;BME280;1913;50.660;7.834;2022-12-24T06:59:49;96720.38;;;7.17;100.00
3796;BME280;1913;50.660;7.834;2022-12-24T07:02:14;96708.53;;;7.21;100.00
3796;BME280;1913;50.660;7.834;2022-12-24T07:04:40;96721.44;;;7.23;100.00
3796;BME280;1913;50.660;7.834;2022-12-24T07:07:05;96723.03;;;7.24;100.00
3796;BME280;1913;50.660;7.834;2022-12-24T07:09:30;96727.88;;;7.27;100.00
3796;BME280;1913;50.660;7.834;2022-12-24T07:11:56;96734.34;;;7.31;100.00
3796;BME280;1913;50.660;7.834;2022-12-24T07:14:21;96732.94;;;7.35;100.00
3796;BME280;1913;50.660;7.834;2022-12-24T07:16:47;96732.94;;;7.35;100.00
3796;BME280;1913;50.660;7.834;2022-12-24T07:19:13;96733.19;;;7.40;100.00
3796;BME280;1913;50.660;7.834;2022-12-24T07:21:38;96732.19;;;7.41;100.00
3796;BME280;1913;50.660;7.834;2022-12-24T07:24:04;96739.25;;;7.47;100.00
3796;BME280;1913;50.660;7.834;2022-12-24T07:26:29;96725.78;;;7.43;100.00
3796;BME280;1913;50.660;7.834;2022-12-24T07:28:55;96731.44;;;7.47;100.00
3796;BME280;1913;50.660;7.834;2022-12-24T07:31:20;96731.84;;;7.51;100.00
3796;BME280;1913;50.660;7.834;2022-12-24T07:33:45;96749.31;;;7.50;100.00
3796;BME280;1913;50.660;7.834;2022-12-24T07:36:16;96749.72;;;7.54;100.00
3796;BME280;1913;50.660;7.834;2022-12-24T07:38:43;96757.41;;;7.55;100.00
3796;BME280;1913;50.660;7.834;2022-12-24T07:41:08;96762.63;;;7.55;100.00
3796;BME280;1913;50.660;7.834;2022-12-24T07:43:34;96773.25;;;7.54;100.00
3796;BME280;1913;50.660;7.834;2022-12-24T07:46:00;96765.25;;;7.55;100.00
3796;BME280;1913;50.660;7.834;2022-12-24T07:48:27;96774.69;;;7.56;100.00
3796;BME280;1913;50.660;7.834;2022-12-24T07:50:54;96762.25;;;7.58;100.00
3796;BME280;1913;50.660;7.834;2022-12-24T07:53:20;96780.38;;;7.66;100.00
3796;BME280;1913;50.660;7.834;2022-12-24T07:55:45;96779.97;;;7.63;100.00
3796;BME280;1913;50.660;7.834;2022-12-24T07:58:11;96784.97;;;7.64;100.00
3796;BME280;1913;50.660;7.834;2022-12-24T08:00:37;96793.47;;;7.66;100.00
3796;BME280;1913;50.660;7.834;2022-12-24T08:03:03;96800.91;;;7.70;100.00
3796;BME280;1913;50.660;7.834;2022-12-24T08:05:34;96802.53;;;7.71;100.00
3796;BME280;1913;50.660;7.834;2022-12-24T08:08:00;96801.72;;;7.70;100.00
3796;BME280;1913;50.660;7.834;2022-12-24T08:10:26;96805.53;;;7.67;100.00
3796;BME280;1913;50.660;7.834;2022-12-24T08:12:51;96799.31;;;7.68;100.00
3796;BME280;1913;50.660;7.834;2022-12-24T08:15:17;96808.94;;;7.68;100.00
3796;BME280;1913;50.660;7.834;2022-12-24T08:17:42;96813.78;;;7.71;100.00
3796;BME280;1913;50.660;7.834;2022-12-24T08:20:08;96820.44;;;7.74;100.00
3796;BME280;1913;50.660;7.834;2022-12-24T08:22:34;96822.47;;;7.78;100.00
3796;BME280;1913;50.660;7.834;2022-12-24T08:24:59;96823.91;;;7.81;100.00
3796;BME280;1913;50.660;7.834;2022-12-24T08:27:25;96824.97;;;7.86;100.00
3796;BME280;1913;50.660;7.834;2022-12-24T08:29:50;96816.69;;;7.89;100.00
3796;BME280;1913;50.660;7.834;2022-12-24T08:32:17;96827.59;;;7.93;100.00
3796;BME280;1913;50.660;7.834;2022-12-24T08:34:42;96828.00;;;7.97;100.00
3796;BME280;1913;50.660;7.834;2022-12-24T08:37:07;96831.66;;;8.02;100.00
3796;BME280;1913;50.660;7.834;2022-12-24T08:39:33;96822.44;;;8.13;100.00
3796;BME280;1913;50.660;7.834;2022-12-24T08:41:58;96828.75;;;8.32;100.00
3796;BME280;1913;50.660;7.834;2022-12-24T08:44:23;96828.22;;;8.43;100.00
3796;BME280;1913;50.660;7.834;2022-12-24T08:46:49;96836.25;;;8.42;100.00
3796;BME280;1913;50.660;7.834;2022-12-24T08:49:14;96833.69;;;8.55;100.00
3796;BME280;1913;50.660;7.834;2022-12-24T08:51:40;96829.47;;;8.67;100.00
3796;BME280;1913;50.660;7.834;2022-12-24T08:54:05;96833.50;;;8.70;100.00
3796;BME280;1913;50.660;7.834;2022-12-24T08:56:31;96840.34;;;8.64;100.00
3796;BME280;1913;50.660;7.834;2022-12-24T08:58:59;96849.22;;;8.63;100.00
3796;BME280;1913;50.660;7.834;2022-12-24T09:01:24;96852.06;;;8.68;100.00
3796;BME280;1913;50.660;7.834;2022-12-24T09:03:49;96853.44;;;8.57;100.00
3796;BME280;1913;50.660;7.834;2022-12-24T09:06:15;96852.03;;;8.61;100.00
3796;BME280;1913;50.660;7.834;2022-12-24T09:08:40;96860.13;;;8.73;100.00
3796;BME280;1913;50.660;7.834;2022-12-24T09:11:11;96861.97;;;8.79;100.00
3796;BME280;1913;50.660;7.834;2022-12-24T09:13:37;96862.97;;;8.85;100.00
3796;BME280;1913;50.660;7.834;2022-12-24T09:16:03;96868.00;;;9.00;100.00
3796;BME280;1913;50.660;7.834;2022-12-24T09:18:29;96869.25;;;8.97;100.00
3796;BME280;1913;50.660;7.834;2022-12-24T09:21:02;96859.56;;;8.98;100.00
3796;BME280;1913;50.660;7.834;2022-12-24T09:23:28;96868.84;;;8.94;100.00
3796;BME280;1913;50.660;7.834;2022-12-24T09:25:54;96875.66;;;8.88;100.00
3796;BME280;1913;50.660;7.834;2022-12-24T09:28:19;96876.47;;;8.95;100.00
3796;BME280;1913;50.660;7.834;2022-12-24T09:30:55;96885.16;;;9.02;100.00
3796;BME280;1913;50.660;7.834;2022-12-24T09:33:21;96877.91;;;8.98;100.00
3796;BME280;1913;50.660;7.834;2022-12-24T09:35:49;96878.31;;;9.01;100.00
3796;BME280;1913;50.660;7.834;2022-12-24T09:38:15;96889.00;;;9.06;100.00
3796;BME280;1913;50.660;7.834;2022-12-24T09:40:40;96892.25;;;9.35;100.00
3796;BME280;1913;50.660;7.834;2022-12-24T09:43:45;96900.72;;;9.44;100.00
3796;BME280;1913;50.660;7.834;2022-12-24T09:48:41;96906.38;;;9.27;100.00
3796;BME280;1913;50.660;7.834;2022-12-24T09:51:19;96914.44;;;9.39;100.00
3796;BME280;1913;50.660;7.834;2022-12-24T09:54:05;96917.50;;;9.43;100.00
3796;BME280;1913;50.660;7.834;2022-12-24T09:56:42;96912.22;;;9.36;100.00
3796;BME280;1913;50.660;7.834;2022-12-24T09:59:12;96921.28;;;9.20;100.00
3796;BME280;1913;50.660;7.834;2022-12-24T10:01:38;96921.91;;;9.29;100.00
3796;BME280;1913;50.660;7.834;2022-12-24T10:04:10;96918.47;;;9.42;100.00
3796;BME280;1913;50.660;7.834;2022-12-24T10:09:50;96921.50;;;9.72;100.00
3796;BME280;1913;50.660;7.834;2022-12-24T10:15:25;96918.28;;;9.56;100.00
3796;BME280;1913;50.660;7.834;2022-12-24T10:18:28;96928.16;;;9.54;100.00
3796;BME280;1913;50.660;7.834;2022-12-24T10:21:14;96933.81;;;9.58;100.00
3796;BME280;1913;50.660;7.834;2022-12-24T10:27:00;96941.25;;;9.28;100.00
3796;BME280;1913;50.660;7.834;2022-12-24T10:29:30;96942.06;;;9.22;100.00
3796;BME280;1913;50.660;7.834;2022-12-24T10:34:56;96938.03;;;9.26;100.00
3796;BME280;1913;50.660;7.834;2022-12-24T10:37:24;96933.78;;;9.25;100.00
3796;BME280;1913;50.660;7.834;2022-12-24T10:39:51;96940.00;;;9.10;100.00
3796;BME280;1913;50.660;7.834;2022-12-24T10:42:17;96922.06;;;9.14;100.00
3796;BME280;1913;50.660;7.834;2022-12-24T10:44:52;96921.66;;;9.10;100.00
3796;BME280;1913;50.660;7.834;2022-12-24T10:47:20;96931.97;;;9.12;100.00
3796;BME280;1913;50.660;7.834;2022-12-24T10:49:53;96942.06;;;9.15;100.00
3796;BME280;1913;50.660;7.834;2022-12-24T10:52:24;96934.59;;;9.19;100.00
3796;BME280;1913;50.660;7.834;2022-12-24T10:57:59;96939.00;;;9.05;100.00
3796;BME280;1913;50.660;7.834;2022-12-24T11:00:25;96942.03;;;9.08;100.00
3796;BME280;1913;50.660;7.834;2022-12-24T11:05:34;96945.44;;;9.02;100.00
3796;BME280;1913;50.660;7.834;2022-12-24T11:10:40;96939.41;;;9.02;100.00
3796;BME280;1913;50.660;7.834;2022-12-24T11:13:22;96939.41;;;9.02;100.00
3796;BME280;1913;50.660;7.834;2022-12-24T11:15:51;96939.63;;;9.00;100.00
3796;BME280;1913;50.660;7.834;2022-12-24T11:18:26;96937.97;;;8.99;100.00
3796;BME280;1913;50.660;7.834;2022-12-24T11:20:54;96932.56;;;9.01;100.00
3796;BME280;1913;50.660;7.834;2022-12-24T11:23:24;96935.19;;;9.07;100.00
3796;BME280;1913;50.660;7.834;2022-12-24T11:25:50;96939.44;;;9.15;100.00
3796;BME280;1913;50.660;7.834;2022-12-24T11:28:28;96936.78;;;9.08;100.00
3796;BME280;1913;50.660;7.834;2022-12-24T11:31:15;96941.66;;;9.11;100.00
3796;BME280;1913;50.660;7.834;2022-12-24T11:33:48;96932.34;;;9.09;100.00
3796;BME280;1913;50.660;7.834;2022-12-24T11:36:16;96933.38;;;9.15;100.00
3796;BME280;1913;50.660;7.834;2022-12-24T11:38:54;96935.59;;;9.24;100.00
3796;BME280;1913;50.660;7.834;2022-12-24T11:41:20;96923.69;;;9.28;100.00
3796;BME280;1913;50.660;7.834;2022-12-24T11:43:47;96920.09;;;9.29;100.00
3796;BME280;1913;50.660;7.834;2022-12-24T11:46:34;96911.00;;;9.32;100.00
3796;BME280;1913;50.660;7.834;2022-12-24T11:55:05;96933.19;;;9.23;100.00
3796;BME280;1913;50.660;7.834;2022-12-24T11:57:48;96924.91;;;9.19;100.00
3796;BME280;1913;50.660;7.834;2022-12-24T12:00:15;96932.78;;;9.26;100.00
3796;BME280;1913;50.660;7.834;2022-12-24T12:02:42;96931.78;;;9.27;100.00
3796;BME280;1913;50.660;7.834;2022-12-24T12:05:29;96935.00;;;9.42;100.00
3796;BME280;1913;50.660;7.834;2022-12-24T12:08:07;96935.63;;;9.44;100.00
3796;BME280;1913;50.660;7.834;2022-12-24T12:10:39;96943.69;;;9.49;100.00
3796;BME280;1913;50.660;7.834;2022-12-24T12:13:28;96959.25;;;9.64;100.00
3796;BME280;1913;50.660;7.834;2022-12-24T12:16:42;96948.75;;;9.44;100.00
3796;BME280;1913;50.660;7.834;2022-12-24T12:19:27;96956.03;;;9.62;100.00
3796;BME280;1913;50.660;7.834;2022-12-24T12:21:57;96948.34;;;9.54;100.00
3796;BME280;1913;50.660;7.834;2022-12-24T12:24:28;96950.19;;;9.53;100.00
3796;BME280;1913;50.660;7.834;2022-12-24T12:27:57;96950.16;;;9.47;100.00
3796;BME280;1913;50.660;7.834;2022-12-24T12:30:19;96948.75;;;9.71;100.00
3796;BME280;1913;50.660;7.834;2022-12-24T12:35:24;96962.06;;;9.63;100.00
3796;BME280;1913;50.660;7.834;2022-12-24T12:56:54;96956.22;;;9.87;100.00
3796;BME280;1913;50.660;7.834;2022-12-24T13:20:30;96981.25;;;9.43;100.00
3796;BME280;1913;50.660;7.834;2022-12-24T13:22:59;96982.63;;;9.39;100.00
3796;BME280;1913;50.660;7.834;2022-12-24T13:25:34;96988.06;;;9.31;100.00
3796;BME280;1913;50.660;7.834;2022-12-24T13:30:52;96986.41;;;9.17;100.00
3796;BME280;1913;50.660;7.834;2022-12-24T13:38:31;96999.31;;;9.11;100.00
3796;BME280;1913;50.660;7.834;2022-12-24T13:49:17;97015.03;;;9.11;100.00
3796;BME280;1913;50.660;7.834;2022-12-24T13:51:44;97017.66;;;9.05;100.00
3796;BME280;1913;50.660;7.834;2022-12-24T13:54:11;97004.31;;;9.06;100.00
3796;BME280;1913;50.660;7.834;2022-12-24T13:56:38;97011.78;;;9.03;100.00
3796;BME280;1913;50.660;7.834;2022-12-24T13:59:33;97024.22;;;8.87;100.00
3796;BME280;1913;50.660;7.834;2022-12-24T14:01:59;97020.06;;;9.06;100.00
3796;BME280;1913;50.660;7.834;2022-12-24T14:04:31;97015.44;;;9.08;100.00
3796;BME280;1913;50.660;7.834;2022-12-24T14:07:01;97019.28;;;9.13;100.00
3796;BME280;1913;50.660;7.834;2022-12-24T14:09:29;97019.09;;;9.21;100.00
3796;BME280;1913;50.660;7.834;2022-12-24T14:14:29;97011.66;;;9.31;100.00
3796;BME280;1913;50.660;7.834;2022-12-24T14:16:58;97010.84;;;9.30;100.00
3796;BME280;1913;50.660;7.834;2022-12-24T14:19:42;97016.69;;;9.26;100.00
3796;BME280;1913;50.660;7.834;2022-12-24T14:22:44;97014.25;;;9.18;100.00
3796;BME280;1913;50.660;7.834;2022-12-24T14:25:13;97016.56;;;8.93;100.00
3796;BME280;1913;50.660;7.834;2022-12-24T14:30:21;97029.25;;;8.82;100.00
3796;BME280;1913;50.660;7.834;2022-12-24T14:32:50;97031.03;;;8.75;100.00
3796;BME280;1913;50.660;7.834;2022-12-24T14:35:23;97029.41;;;8.74;100.00
3796;BME280;1913;50.660;7.834;2022-12-24T14:37:59;97027.41;;;8.76;100.00
3796;BME280;1913;50.660;7.834;2022-12-24T14:40:28;97028.94;;;8.64;100.00
3796;BME280;1913;50.660;7.834;2022-12-24T14:56:13;97035.31;;;8.83;100.00
3796;BME280;1913;50.660;7.834;2022-12-24T14:58:39;97031.09;;;8.95;100.00
3796;BME280;1913;50.660;7.834;2022-12-24T15:01:21;97031.06;;;8.88;100.00
3796;BME280;1913;50.660;7.834;2022-12-24T15:06:45;97047.81;;;8.87;100.00
3796;BME280;1913;50.660;7.834;2022-12-24T15:09:25;97061.91;;;8.86;100.00
3796;BME280;1913;50.660;7.834;2022-12-24T15:11:55;97061.28;;;8.84;100.00
3796;BME280;1913;50.660;7.834;2022-12-24T15:14:24;97060.88;;;8.81;100.00
3796;BME280;1913;50.660;7.834;2022-12-24T15:16:57;97064.50;;;8.80;100.00
3796;BME280;1913;50.660;7.834;2022-12-24T15:19:33;97062.31;;;8.83;100.00
3796;BME280;1913;50.660;7.834;2022-12-24T15:22:07;97072.53;;;8.72;100.00
3796;BME280;1913;50.660;7.834;2022-12-24T15:24:36;97077.78;;;8.72;100.00
3796;BME280;1913;50.660;7.834;2022-12-24T15:27:31;97082.97;;;8.65;100.00
3796;BME280;1913;50.660;7.834;2022-12-24T15:29:57;97086.16;;;8.60;100.00
3796;BME280;1913;50.660;7.834;2022-12-24T15:32:25;97093.34;;;8.52;100.00
3796;BME280;1913;50.660;7.834;2022-12-24T15:34:53;97097.59;;;8.53;100.00
3796;BME280;1913;50.660;7.834;2022-12-24T15:37:25;97093.50;;;8.44;100.00
3796;BME280;1913;50.660;7.834;2022-12-24T15:40:06;97097.94;;;8.43;100.00
3796;BME280;1913;50.660;7.834;2022-12-24T15:42:33;97112.66;;;8.44;100.00
3796;BME280;1913;50.660;7.834;2022-12-24T15:45:16;97113.81;;;8.42;100.00
3796;BME280;1913;50.660;7.834;2022-12-24T15:47:49;97120.16;;;8.32;100.00
3796;BME280;1913;50.660;7.834;2022-12-24T15:50:25;97109.13;;;8.37;100.00